sensor_id;sensor_type;location;lat;lon;timestamp;P1;durP1;ratioP1;P2;durP2;ratioP2
66179;SDS011;52986;44.028;20.466;2023-05-23T00:01:28;12.05;;;5.22;;
66179;SDS011;52986;44.028;20.466;2023-05-23T00:03:55;11.00;;;5.13;;
66179;SDS011;52986;44.028;20.466;2023-05-23T00:06:21;11.82;;;5.18;;
66179;SDS011;52986;44.028;20.466;2023-05-23T00:08:47;10.73;;;4.93;;
66179;SDS011;52986;44.028;20.466;2023-05-23T00:11:12;12.23;;;4.95;;
66179;SDS011;52986;44.028;20.466;2023-05-23T00:13:38;11.13;;;4.88;;
66179;SDS011;52986;44.028;20.466;2023-05-23T00:16:04;10.95;;;4.75;;
66179;SDS011;52986;44.028;20.466;2023-05-23T00:18:33;10.52;;;4.68;;
66179;SDS011;52986;44.028;20.466;2023-05-23T00:20:59;10.75;;;4.85;;
66179;SDS011;52986;44.028;20.466;2023-05-23T00:23:25;10.95;;;4.53;;
66179;SDS011;52986;44.028;20.466;2023-05-23T00:25:53;10.35;;;4.75;;
66179;SDS011;52986;44.028;20.466;2023-05-23T00:28:22;10.95;;;4.50;;
66179;SDS011;52986;44.028;20.466;2023-05-23T00:30:47;9.85;;;4.45;;
66179;SDS011;52986;44.028;20.466;2023-05-23T00:33:13;10.93;;;4.88;;
66179;SDS011;52986;44.028;20.466;2023-05-23T00:35:40;11.32;;;4.65;;
66179;SDS011;52986;44.028;20.466;2023-05-23T00:38:06;11.32;;;4.60;;
66179;SDS011;52986;44.028;20.466;2023-05-23T00:40:32;10.88;;;4.53;;
66179;SDS011;52986;44.028;20.466;2023-05-23T00:42:59;12.00;;;5.00;;
66179;SDS011;52986;44.028;20.466;2023-05-23T00:45:24;11.50;;;4.70;;
66179;SDS011;52986;44.028;20.466;2023-05-23T00:47:50;10.52;;;4.70;;
66179;SDS011;52986;44.028;20.466;2023-05-23T00:50:17;11.15;;;4.45;;
66179;SDS011;52986;44.028;20.466;2023-05-23T00:52:43;12.07;;;4.85;;
66179;SDS011;52986;44.028;20.466;2023-05-23T00:55:10;10.57;;;4.60;;
66179;SDS011;52986;44.028;20.466;2023-05-23T00:57:36;12.35;;;5.20;;
66179;SDS011;52986;44.028;20.466;2023-05-23T01:00:08;10.07;;;4.90;;
66179;SDS011;52986;44.028;20.466;2023-05-23T01:02:44;13.45;;;4.88;;
66179;SDS011;52986;44.028;20.466;2023-05-23T01:05:11;10.18;;;4.85;;
66179;SDS011;52986;44.028;20.466;2023-05-23T01:07:41;9.82;;;4.53;;
66179;SDS011;52986;44.028;20.466;2023-05-23T01:10:07;10.13;;;4.72;;
66179;SDS011;52986;44.028;20.466;2023-05-23T01:15:12;11.40;;;4.78;;
66179;SDS011;52986;44.028;20.466;2023-05-23T01:20:19;9.85;;;4.63;;
66179;SDS011;52986;44.028;20.466;2023-05-23T01:22:58;10.55;;;4.70;;
66179;SDS011;52986;44.028;20.466;2023-05-23T01:28:24;10.52;;;4.85;;
66179;SDS011;52986;44.028;20.466;2023-05-23T01:30:54;10.30;;;4.72;;
66179;SDS011;52986;44.028;20.466;2023-05-23T01:33:22;10.05;;;4.80;;
66179;SDS011;52986;44.028;20.466;2023-05-23T01:35:49;10.43;;;4.43;;
66179;SDS011;52986;44.028;20.466;2023-05-23T01:38:15;9.43;;;4.50;;
66179;SDS011;52986;44.028;20.466;2023-05-23T01:40:41;9.75;;;4.65;;
66179;SDS011;52986;44.028;20.466;2023-05-23T01:43:06;9.88;;;4.63;;
66179;SDS011;52986;44.028;20.466;2023-05-23T01:45:32;12.82;;;4.97;;
66179;SDS011;52986;44.028;20.466;2023-05-23T01:47:58;10.73;;;5.05;;
66179;SDS011;52986;44.028;20.466;2023-05-23T01:50:24;14.20;;;6.63;;
66179;SDS011;52986;44.028;20.466;2023-05-23T01:52:51;11.00;;;5.30;;
66179;SDS011;52986;44.028;20.466;2023-05-23T01:55:18;11.52;;;4.80;;
66179;SDS011;52986;44.028;20.466;2023-05-23T01:57:47;10.40;;;5.05;;
66179;SDS011;52986;44.028;20.466;2023-05-23T02:00:15;12.30;;;4.72;;
66179;SDS011;52986;44.028;20.466;2023-05-23T02:02:41;12.77;;;4.90;;
66179;SDS011;52986;44.028;20.466;2023-05-23T02:05:06;12.23;;;4.70;;
66179;SDS011;52986;44.028;20.466;2023-05-23T02:07:33;9.85;;;4.30;;
66179;SDS011;52986;44.028;20.466;2023-05-23T02:09:58;11.80;;;5.07;;
66179;SDS011;52986;44.028;20.466;2023-05-23T02:12:24;10.18;;;4.50;;
66179;SDS011;52986;44.028;20.466;2023-05-23T02:14:49;11.10;;;4.75;;
66179;SDS011;52986;44.028;20.466;2023-05-23T02:17:17;11.57;;;5.00;;
66179;SDS011;52986;44.028;20.466;2023-05-23T02:19:43;12.05;;;5.70;;
66179;SDS011;52986;44.028;20.466;2023-05-23T02:22:08;11.80;;;5.30;;
66179;SDS011;52986;44.028;20.466;2023-05-23T02:24:34;13.02;;;4.85;;
66179;SDS011;52986;44.028;20.466;2023-05-23T02:26:59;10.02;;;4.63;;
66179;SDS011;52986;44.028;20.466;2023-05-23T02:29:25;11.55;;;4.88;;
66179;SDS011;52986;44.028;20.466;2023-05-23T02:31:50;9.60;;;4.43;;
66179;SDS011;52986;44.028;20.466;2023-05-23T02:34:15;10.73;;;4.85;;
66179;SDS011;52986;44.028;20.466;2023-05-23T02:36:41;11.40;;;4.70;;
66179;SDS011;52986;44.028;20.466;2023-05-23T02:39:06;14.38;;;5.35;;
66179;SDS011;52986;44.028;20.466;2023-05-23T02:41:32;9.70;;;4.57;;
66179;SDS011;52986;44.028;20.466;2023-05-23T02:43:57;11.00;;;4.68;;
66179;SDS011;52986;44.028;20.466;2023-05-23T02:46:23;9.95;;;4.68;;
66179;SDS011;52986;44.028;20.466;2023-05-23T02:48:48;12.17;;;4.70;;
66179;SDS011;52986;44.028;20.466;2023-05-23T02:51:14;12.48;;;4.45;;
66179;SDS011;52986;44.028;20.466;2023-05-23T02:53:39;11.98;;;4.95;;
66179;SDS011;52986;44.028;20.466;2023-05-23T02:56:05;11.15;;;4.50;;
66179;SDS011;52986;44.028;20.466;2023-05-23T02:58:32;9.95;;;4.68;;
66179;SDS011;52986;44.028;20.466;2023-05-23T03:01:00;12.18;;;5.03;;
66179;SDS011;52986;44.028;20.466;2023-05-23T03:03:26;11.85;;;4.97;;
66179;SDS011;52986;44.028;20.466;2023-05-23T03:05:52;10.35;;;4.40;;
66179;SDS011;52986;44.028;20.466;2023-05-23T03:08:18;10.68;;;4.78;;
66179;SDS011;52986;44.028;20.466;2023-05-23T03:10:44;11.43;;;4.78;;
66179;SDS011;52986;44.028;20.466;2023-05-23T03:13:09;11.25;;;4.60;;
66179;SDS011;52986;44.028;20.466;2023-05-23T03:15:35;10.48;;;4.45;;
66179;SDS011;52986;44.028;20.466;2023-05-23T03:18:00;13.13;;;4.93;;
66179;SDS011;52986;44.028;20.466;2023-05-23T03:20:25;12.15;;;4.70;;
66179;SDS011;52986;44.028;20.466;2023-05-23T03:22:51;10.35;;;4.78;;
66179;SDS011;52986;44.028;20.466;2023-05-23T03:25:16;10.60;;;4.78;;
66179;SDS011;52986;44.028;20.466;2023-05-23T03:27:42;10.38;;;4.60;;
66179;SDS011;52986;44.028;20.466;2023-05-23T03:30:07;11.02;;;4.90;;
66179;SDS011;52986;44.028;20.466;2023-05-23T03:32:33;10.82;;;4.90;;
66179;SDS011;52986;44.028;20.466;2023-05-23T03:34:58;13.32;;;5.38;;
66179;SDS011;52986;44.028;20.466;2023-05-23T03:37:24;11.55;;;5.07;;
66179;SDS011;52986;44.028;20.466;2023-05-23T03:39:49;12.23;;;5.15;;
66179;SDS011;52986;44.028;20.466;2023-05-23T03:42:14;11.65;;;4.93;;
66179;SDS011;52986;44.028;20.466;2023-05-23T03:44:40;15.00;;;4.95;;
66179;SDS011;52986;44.028;20.466;2023-05-23T03:47:05;11.07;;;4.90;;
66179;SDS011;52986;44.028;20.466;2023-05-23T03:49:31;11.60;;;5.22;;
66179;SDS011;52986;44.028;20.466;2023-05-23T03:51:56;18.27;;;5.72;;
66179;SDS011;52986;44.028;20.466;2023-05-23T03:54:22;14.65;;;5.90;;
66179;SDS011;52986;44.028;20.466;2023-05-23T03:56:47;13.15;;;5.47;;
66179;SDS011;52986;44.028;20.466;2023-05-23T03:59:12;12.23;;;5.13;;
66179;SDS011;52986;44.028;20.466;2023-05-23T04:01:38;11.68;;;5.60;;
66179;SDS011;52986;44.028;20.466;2023-05-23T04:04:03;12.57;;;5.85;;
66179;SDS011;52986;44.028;20.466;2023-05-23T04:06:29;12.50;;;5.68;;
66179;SDS011;52986;44.028;20.466;2023-05-23T04:08:55;12.77;;;5.40;;
66179;SDS011;52986;44.028;20.466;2023-05-23T04:11:21;18.23;;;6.63;;
66179;SDS011;52986;44.028;20.466;2023-05-23T04:13:46;14.75;;;5.85;;
66179;SDS011;52986;44.028;20.466;2023-05-23T04:16:12;13.13;;;5.60;;
66179;SDS011;52986;44.028;20.466;2023-05-23T04:18:37;12.65;;;6.47;;
66179;SDS011;52986;44.028;20.466;2023-05-23T04:21:03;13.48;;;5.85;;
66179;SDS011;52986;44.028;20.466;2023-05-23T04:23:29;13.63;;;6.20;;
66179;SDS011;52986;44.028;20.466;2023-05-23T04:25:54;12.25;;;5.55;;
66179;SDS011;52986;44.028;20.466;2023-05-23T04:28:21;15.00;;;6.00;;
66179;SDS011;52986;44.028;20.466;2023-05-23T04:30:47;15.10;;;5.90;;
66179;SDS011;52986;44.028;20.466;2023-05-23T04:33:13;11.73;;;5.30;;
66179;SDS011;52986;44.028;20.466;2023-05-23T04:35:39;14.48;;;5.25;;
66179;SDS011;52986;44.028;20.466;2023-05-23T04:38:05;17.02;;;5.93;;
66179;SDS011;52986;44.028;20.466;2023-05-23T04:40:30;12.25;;;5.50;;
66179;SDS011;52986;44.028;20.466;2023-05-23T04:42:56;10.10;;;5.10;;
66179;SDS011;52986;44.028;20.466;2023-05-23T04:45:21;12.38;;;5.55;;
66179;SDS011;52986;44.028;20.466;2023-05-23T04:47:47;12.13;;;5.22;;
66179;SDS011;52986;44.028;20.466;2023-05-23T04:50:12;11.77;;;5.53;;
66179;SDS011;52986;44.028;20.466;2023-05-23T04:52:42;11.20;;;5.13;;
66179;SDS011;52986;44.028;20.466;2023-05-23T04:55:07;10.30;;;5.10;;
66179;SDS011;52986;44.028;20.466;2023-05-23T04:57:33;13.13;;;5.13;;
66179;SDS011;52986;44.028;20.466;2023-05-23T04:59:59;12.55;;;5.30;;
66179;SDS011;52986;44.028;20.466;2023-05-23T05:02:25;17.42;;;6.20;;
66179;SDS011;52986;44.028;20.466;2023-05-23T05:04:51;12.82;;;5.60;;
66179;SDS011;52986;44.028;20.466;2023-05-23T05:07:16;11.68;;;5.40;;
66179;SDS011;52986;44.028;20.466;2023-05-23T05:09:42;14.38;;;6.40;;
66179;SDS011;52986;44.028;20.466;2023-05-23T05:12:07;14.73;;;6.32;;
66179;SDS011;52986;44.028;20.466;2023-05-23T05:14:32;14.67;;;6.17;;
66179;SDS011;52986;44.028;20.466;2023-05-23T05:16:58;13.88;;;6.47;;
66179;SDS011;52986;44.028;20.466;2023-05-23T05:19:23;17.17;;;7.53;;
66179;SDS011;52986;44.028;20.466;2023-05-23T05:21:49;16.33;;;6.95;;
66179;SDS011;52986;44.028;20.466;2023-05-23T05:24:14;16.08;;;7.20;;
66179;SDS011;52986;44.028;20.466;2023-05-23T05:26:40;16.42;;;6.25;;
66179;SDS011;52986;44.028;20.466;2023-05-23T05:29:06;14.27;;;6.30;;
66179;SDS011;52986;44.028;20.466;2023-05-23T05:31:32;15.65;;;6.00;;
66179;SDS011;52986;44.028;20.466;2023-05-23T05:33:57;12.68;;;6.07;;
66179;SDS011;52986;44.028;20.466;2023-05-23T05:36:23;14.50;;;5.68;;
66179;SDS011;52986;44.028;20.466;2023-05-23T05:38:48;12.02;;;5.30;;
66179;SDS011;52986;44.028;20.466;2023-05-23T05:41:14;12.40;;;6.10;;
66179;SDS011;52986;44.028;20.466;2023-05-23T05:43:39;14.25;;;5.65;;
66179;SDS011;52986;44.028;20.466;2023-05-23T05:46:04;12.27;;;5.85;;
66179;SDS011;52986;44.028;20.466;2023-05-23T05:48:30;11.50;;;5.90;;
66179;SDS011;52986;44.028;20.466;2023-05-23T05:50:56;13.00;;;5.68;;
66179;SDS011;52986;44.028;20.466;2023-05-23T05:53:25;15.27;;;6.05;;
66179;SDS011;52986;44.028;20.466;2023-05-23T05:55:50;12.30;;;6.05;;
66179;SDS011;52986;44.028;20.466;2023-05-23T05:58:15;13.32;;;6.32;;
66179;SDS011;52986;44.028;20.466;2023-05-23T06:00:41;15.03;;;6.13;;
66179;SDS011;52986;44.028;20.466;2023-05-23T06:03:07;13.35;;;6.45;;
66179;SDS011;52986;44.028;20.466;2023-05-23T06:05:33;15.63;;;6.03;;
66179;SDS011;52986;44.028;20.466;2023-05-23T06:07:58;16.20;;;6.22;;
66179;SDS011;52986;44.028;20.466;2023-05-23T06:10:24;12.63;;;6.32;;
66179;SDS011;52986;44.028;20.466;2023-05-23T06:12:49;12.95;;;5.97;;
66179;SDS011;52986;44.028;20.466;2023-05-23T06:15:15;12.63;;;6.10;;
66179;SDS011;52986;44.028;20.466;2023-05-23T06:17:40;13.95;;;5.88;;
66179;SDS011;52986;44.028;20.466;2023-05-23T06:20:15;14.18;;;6.38;;
66179;SDS011;52986;44.028;20.466;2023-05-23T06:22:41;13.18;;;5.70;;
66179;SDS011;52986;44.028;20.466;2023-05-23T06:25:06;13.18;;;5.68;;
66179;SDS011;52986;44.028;20.466;2023-05-23T06:27:32;15.48;;;5.75;;
66179;SDS011;52986;44.028;20.466;2023-05-23T06:29:57;12.85;;;5.78;;
66179;SDS011;52986;44.028;20.466;2023-05-23T06:32:22;14.18;;;5.75;;
66179;SDS011;52986;44.028;20.466;2023-05-23T06:34:48;15.38;;;6.07;;
66179;SDS011;52986;44.028;20.466;2023-05-23T06:37:13;13.13;;;6.10;;
66179;SDS011;52986;44.028;20.466;2023-05-23T06:39:39;11.07;;;5.75;;
66179;SDS011;52986;44.028;20.466;2023-05-23T06:42:04;15.30;;;5.50;;
66179;SDS011;52986;44.028;20.466;2023-05-23T06:44:30;11.88;;;5.75;;
66179;SDS011;52986;44.028;20.466;2023-05-23T06:46:55;15.68;;;6.22;;
66179;SDS011;52986;44.028;20.466;2023-05-23T06:49:22;14.93;;;6.70;;
66179;SDS011;52986;44.028;20.466;2023-05-23T06:51:49;13.05;;;5.60;;
66179;SDS011;52986;44.028;20.466;2023-05-23T06:54:14;15.77;;;5.97;;
66179;SDS011;52986;44.028;20.466;2023-05-23T06:56:40;13.52;;;6.13;;
66179;SDS011;52986;44.028;20.466;2023-05-23T06:59:05;12.27;;;5.85;;
66179;SDS011;52986;44.028;20.466;2023-05-23T07:01:30;11.85;;;5.22;;
66179;SDS011;52986;44.028;20.466;2023-05-23T07:03:56;14.07;;;5.72;;
66179;SDS011;52986;44.028;20.466;2023-05-23T07:06:21;12.02;;;4.93;;
66179;SDS011;52986;44.028;20.466;2023-05-23T07:08:46;13.27;;;5.32;;
66179;SDS011;52986;44.028;20.466;2023-05-23T07:11:12;11.40;;;5.03;;
66179;SDS011;52986;44.028;20.466;2023-05-23T07:13:37;11.70;;;4.95;;
66179;SDS011;52986;44.028;20.466;2023-05-23T07:16:03;11.60;;;4.88;;
66179;SDS011;52986;44.028;20.466;2023-05-23T07:18:28;10.00;;;5.03;;
66179;SDS011;52986;44.028;20.466;2023-05-23T07:20:55;9.38;;;4.90;;
66179;SDS011;52986;44.028;20.466;2023-05-23T07:23:21;9.98;;;5.18;;
66179;SDS011;52986;44.028;20.466;2023-05-23T07:25:50;9.70;;;4.95;;
66179;SDS011;52986;44.028;20.466;2023-05-23T07:28:15;9.82;;;4.90;;
66179;SDS011;52986;44.028;20.466;2023-05-23T07:30:40;13.13;;;4.78;;
66179;SDS011;52986;44.028;20.466;2023-05-23T07:33:06;13.63;;;5.32;;
66179;SDS011;52986;44.028;20.466;2023-05-23T07:35:32;10.70;;;4.68;;
66179;SDS011;52986;44.028;20.466;2023-05-23T07:37:57;10.13;;;4.82;;
66179;SDS011;52986;44.028;20.466;2023-05-23T07:40:23;8.73;;;4.85;;
66179;SDS011;52986;44.028;20.466;2023-05-23T07:42:48;12.43;;;4.78;;
66179;SDS011;52986;44.028;20.466;2023-05-23T07:45:14;10.75;;;4.72;;
66179;SDS011;52986;44.028;20.466;2023-05-23T07:47:40;10.30;;;4.32;;
66179;SDS011;52986;44.028;20.466;2023-05-23T07:50:06;11.52;;;4.97;;
66179;SDS011;52986;44.028;20.466;2023-05-23T07:52:32;10.68;;;4.40;;
66179;SDS011;52986;44.028;20.466;2023-05-23T07:54:58;9.80;;;4.43;;
66179;SDS011;52986;44.028;20.466;2023-05-23T07:57:23;10.95;;;4.07;;
66179;SDS011;52986;44.028;20.466;2023-05-23T07:59:50;10.65;;;4.80;;
66179;SDS011;52986;44.028;20.466;2023-05-23T08:02:16;10.15;;;4.25;;
66179;SDS011;52986;44.028;20.466;2023-05-23T08:04:41;11.60;;;4.22;;
66179;SDS011;52986;44.028;20.466;2023-05-23T08:07:07;8.48;;;4.22;;
66179;SDS011;52986;44.028;20.466;2023-05-23T08:09:33;9.93;;;3.95;;
66179;SDS011;52986;44.028;20.466;2023-05-23T08:11:59;8.40;;;3.90;;
66179;SDS011;52986;44.028;20.466;2023-05-23T08:14:25;9.93;;;4.10;;
66179;SDS011;52986;44.028;20.466;2023-05-23T08:16:50;10.38;;;4.20;;
66179;SDS011;52986;44.028;20.466;2023-05-23T08:19:16;11.63;;;4.28;;
66179;SDS011;52986;44.028;20.466;2023-05-23T08:21:41;9.68;;;4.57;;
66179;SDS011;52986;44.028;20.466;2023-05-23T08:24:07;11.43;;;4.22;;
66179;SDS011;52986;44.028;20.466;2023-05-23T08:26:32;9.55;;;4.30;;
66179;SDS011;52986;44.028;20.466;2023-05-23T08:28:59;12.40;;;4.20;;
66179;SDS011;52986;44.028;20.466;2023-05-23T08:31:26;16.38;;;4.38;;
66179;SDS011;52986;44.028;20.466;2023-05-23T08:33:55;9.02;;;4.20;;
66179;SDS011;52986;44.028;20.466;2023-05-23T08:36:21;8.65;;;3.92;;
66179;SDS011;52986;44.028;20.466;2023-05-23T08:38:48;9.93;;;3.83;;
66179;SDS011;52986;44.028;20.466;2023-05-23T08:41:18;11.27;;;4.57;;
66179;SDS011;52986;44.028;20.466;2023-05-23T08:46:11;11.82;;;4.00;;
66179;SDS011;52986;44.028;20.466;2023-05-23T08:48:37;17.15;;;7.03;;
66179;SDS011;52986;44.028;20.466;2023-05-23T08:51:03;10.18;;;4.05;;
66179;SDS011;52986;44.028;20.466;2023-05-23T08:53:29;12.00;;;4.20;;
66179;SDS011;52986;44.028;20.466;2023-05-23T08:55:56;10.68;;;4.32;;
66179;SDS011;52986;44.028;20.466;2023-05-23T08:58:26;13.73;;;6.28;;
66179;SDS011;52986;44.028;20.466;2023-05-23T09:00:53;12.25;;;4.38;;
66179;SDS011;52986;44.028;20.466;2023-05-23T09:03:19;10.93;;;4.50;;
66179;SDS011;52986;44.028;20.466;2023-05-23T09:05:47;9.07;;;3.97;;
66179;SDS011;52986;44.028;20.466;2023-05-23T09:08:14;11.35;;;4.22;;
66179;SDS011;52986;44.028;20.466;2023-05-23T09:10:40;10.25;;;4.03;;
66179;SDS011;52986;44.028;20.466;2023-05-23T09:13:06;9.80;;;3.90;;
66179;SDS011;52986;44.028;20.466;2023-05-23T09:15:33;11.10;;;4.00;;
66179;SDS011;52986;44.028;20.466;2023-05-23T09:17:59;9.00;;;4.10;;
66179;SDS011;52986;44.028;20.466;2023-05-23T09:20:28;10.43;;;4.38;;
66179;SDS011;52986;44.028;20.466;2023-05-23T09:22:54;10.98;;;4.03;;
66179;SDS011;52986;44.028;20.466;2023-05-23T09:25:20;13.13;;;4.53;;
66179;SDS011;52986;44.028;20.466;2023-05-23T09:27:45;9.13;;;4.13;;
66179;SDS011;52986;44.028;20.466;2023-05-23T09:30:11;12.35;;;4.55;;
66179;SDS011;52986;44.028;20.466;2023-05-23T09:32:36;9.02;;;3.83;;
66179;SDS011;52986;44.028;20.466;2023-05-23T09:35:03;7.50;;;3.60;;
66179;SDS011;52986;44.028;20.466;2023-05-23T09:37:30;9.05;;;3.53;;
66179;SDS011;52986;44.028;20.466;2023-05-23T09:39:58;9.35;;;3.75;;
66179;SDS011;52986;44.028;20.466;2023-05-23T09:42:24;9.23;;;3.88;;
66179;SDS011;52986;44.028;20.466;2023-05-23T09:44:50;8.93;;;3.65;;
66179;SDS011;52986;44.028;20.466;2023-05-23T09:47:15;8.57;;;3.25;;
66179;SDS011;52986;44.028;20.466;2023-05-23T09:49:45;6.63;;;3.15;;
66179;SDS011;52986;44.028;20.466;2023-05-23T09:52:11;12.60;;;3.35;;
66179;SDS011;52986;44.028;20.466;2023-05-23T09:54:37;7.32;;;2.90;;
66179;SDS011;52986;44.028;20.466;2023-05-23T09:57:03;8.05;;;3.03;;
66179;SDS011;52986;44.028;20.466;2023-05-23T10:02:01;6.70;;;2.90;;
66179;SDS011;52986;44.028;20.466;2023-05-23T10:04:30;7.32;;;2.85;;
66179;SDS011;52986;44.028;20.466;2023-05-23T10:07:00;6.25;;;2.63;;
66179;SDS011;52986;44.028;20.466;2023-05-23T10:09:32;6.07;;;2.72;;
66179;SDS011;52986;44.028;20.466;2023-05-23T10:15:14;12.02;;;3.30;;
66179;SDS011;52986;44.028;20.466;2023-05-23T10:20:25;7.68;;;3.13;;
66179;SDS011;52986;44.028;20.466;2023-05-23T10:22:55;7.50;;;3.20;;
66179;SDS011;52986;44.028;20.466;2023-05-23T10:25:23;9.68;;;3.08;;
66179;SDS011;52986;44.028;20.466;2023-05-23T10:27:49;7.68;;;3.05;;
66179;SDS011;52986;44.028;20.466;2023-05-23T10:30:15;7.95;;;3.08;;
66179;SDS011;52986;44.028;20.466;2023-05-23T10:32:40;7.60;;;3.28;;
66179;SDS011;52986;44.028;20.466;2023-05-23T10:38:01;8.13;;;3.35;;
66179;SDS011;52986;44.028;20.466;2023-05-23T10:43:46;7.85;;;3.72;;
66179;SDS011;52986;44.028;20.466;2023-05-23T10:46:19;8.23;;;3.60;;
66179;SDS011;52986;44.028;20.466;2023-05-23T10:48:51;12.93;;;3.67;;
66179;SDS011;52986;44.028;20.466;2023-05-23T10:51:21;8.98;;;3.67;;
66179;SDS011;52986;44.028;20.466;2023-05-23T10:53:49;11.68;;;3.90;;
66179;SDS011;52986;44.028;20.466;2023-05-23T10:56:19;8.75;;;3.80;;
66179;SDS011;52986;44.028;20.466;2023-05-23T10:58:51;9.63;;;3.80;;
66179;SDS011;52986;44.028;20.466;2023-05-23T11:01:18;9.35;;;3.88;;
66179;SDS011;52986;44.028;20.466;2023-05-23T11:11:50;9.35;;;4.25;;
66179;SDS011;52986;44.028;20.466;2023-05-23T11:14:16;10.52;;;4.38;;
66179;SDS011;52986;44.028;20.466;2023-05-23T11:16:42;8.23;;;4.20;;
66179;SDS011;52986;44.028;20.466;2023-05-23T11:21:42;9.23;;;4.40;;
66179;SDS011;52986;44.028;20.466;2023-05-23T11:24:09;10.10;;;3.83;;
66179;SDS011;52986;44.028;20.466;2023-05-23T11:26:34;11.30;;;4.13;;
66179;SDS011;52986;44.028;20.466;2023-05-23T11:29:00;10.98;;;3.83;;
66179;SDS011;52986;44.028;20.466;2023-05-23T11:31:28;8.68;;;4.20;;
66179;SDS011;52986;44.028;20.466;2023-05-23T11:33:54;8.65;;;3.65;;
66179;SDS011;52986;44.028;20.466;2023-05-23T11:36:20;8.82;;;4.10;;
66179;SDS011;52986;44.028;20.466;2023-05-23T11:38:46;8.80;;;3.65;;
66179;SDS011;52986;44.028;20.466;2023-05-23T11:41:13;10.68;;;4.88;;
66179;SDS011;52986;44.028;20.466;2023-05-23T11:43:47;8.85;;;3.88;;
66179;SDS011;52986;44.028;20.466;2023-05-23T11:46:14;8.70;;;4.10;;
66179;SDS011;52986;44.028;20.466;2023-05-23T11:48:43;9.82;;;4.18;;
66179;SDS011;52986;44.028;20.466;2023-05-23T11:51:09;11.55;;;4.43;;
66179;SDS011;52986;44.028;20.466;2023-05-23T11:53:35;9.07;;;3.95;;
66179;SDS011;52986;44.028;20.466;2023-05-23T11:56:01;9.60;;;3.92;;
66179;SDS011;52986;44.028;20.466;2023-05-23T11:58:31;8.15;;;3.67;;
66179;SDS011;52986;44.028;20.466;2023-05-23T12:01:02;8.73;;;4.22;;
66179;SDS011;52986;44.028;20.466;2023-05-23T12:03:29;8.90;;;3.83;;
66179;SDS011;52986;44.028;20.466;2023-05-23T12:05:55;8.93;;;4.30;;
66179;SDS011;52986;44.028;20.466;2023-05-23T12:08:21;8.45;;;4.03;;
66179;SDS011;52986;44.028;20.466;2023-05-23T12:10:48;11.25;;;4.20;;
66179;SDS011;52986;44.028;20.466;2023-05-23T12:13:15;11.10;;;4.28;;
66179;SDS011;52986;44.028;20.466;2023-05-23T12:15:40;10.23;;;4.05;;
66179;SDS011;52986;44.028;20.466;2023-05-23T12:18:06;10.05;;;4.28;;
66179;SDS011;52986;44.028;20.466;2023-05-23T12:20:31;8.75;;;3.85;;
66179;SDS011;52986;44.028;20.466;2023-05-23T12:23:02;9.05;;;3.83;;
66179;SDS011;52986;44.028;20.466;2023-05-23T12:25:29;9.73;;;4.32;;
66179;SDS011;52986;44.028;20.466;2023-05-23T12:28:02;10.70;;;4.15;;
66179;SDS011;52986;44.028;20.466;2023-05-23T12:30:28;10.20;;;4.32;;
66179;SDS011;52986;44.028;20.466;2023-05-23T12:33:07;10.65;;;4.38;;
66179;SDS011;52986;44.028;20.466;2023-05-23T12:35:33;9.63;;;4.07;;
66179;SDS011;52986;44.028;20.466;2023-05-23T12:37:58;10.55;;;4.13;;
66179;SDS011;52986;44.028;20.466;2023-05-23T12:40:23;8.70;;;4.20;;
66179;SDS011;52986;44.028;20.466;2023-05-23T12:42:53;10.23;;;4.95;;
66179;SDS011;52986;44.028;20.466;2023-05-23T12:47:54;10.35;;;4.82;;
66179;SDS011;52986;44.028;20.466;2023-05-23T12:50:20;10.73;;;4.78;;
66179;SDS011;52986;44.028;20.466;2023-05-23T12:52:45;11.75;;;5.15;;
66179;SDS011;52986;44.028;20.466;2023-05-23T12:55:11;11.88;;;5.38;;
66179;SDS011;52986;44.028;20.466;2023-05-23T12:57:37;14.15;;;5.82;;
66179;SDS011;52986;44.028;20.466;2023-05-23T13:00:02;13.00;;;5.43;;
66179;SDS011;52986;44.028;20.466;2023-05-23T13:02:28;11.57;;;5.10;;
66179;SDS011;52986;44.028;20.466;2023-05-23T13:04:54;10.57;;;5.22;;
66179;SDS011;52986;44.028;20.466;2023-05-23T13:07:19;9.00;;;4.53;;
66179;SDS011;52986;44.028;20.466;2023-05-23T13:09:45;8.60;;;4.35;;
66179;SDS011;52986;44.028;20.466;2023-05-23T13:12:10;8.30;;;4.13;;
66179;SDS011;52986;44.028;20.466;2023-05-23T13:14:36;9.75;;;4.30;;
66179;SDS011;52986;44.028;20.466;2023-05-23T13:17:02;10.15;;;5.40;;
66179;SDS011;52986;44.028;20.466;2023-05-23T13:19:27;10.35;;;5.28;;
66179;SDS011;52986;44.028;20.466;2023-05-23T13:21:52;8.95;;;4.85;;
66179;SDS011;52986;44.028;20.466;2023-05-23T13:24:18;10.55;;;4.97;;
66179;SDS011;52986;44.028;20.466;2023-05-23T13:26:43;10.57;;;5.05;;
66179;SDS011;52986;44.028;20.466;2023-05-23T13:29:09;9.73;;;5.35;;
66179;SDS011;52986;44.028;20.466;2023-05-23T13:31:34;9.45;;;4.70;;
66179;SDS011;52986;44.028;20.466;2023-05-23T13:33:59;8.60;;;4.50;;
66179;SDS011;52986;44.028;20.466;2023-05-23T13:36:25;9.15;;;4.80;;
66179;SDS011;52986;44.028;20.466;2023-05-23T13:38:50;8.50;;;4.72;;
66179;SDS011;52986;44.028;20.466;2023-05-23T13:41:16;9.48;;;4.80;;
66179;SDS011;52986;44.028;20.466;2023-05-23T13:43:41;11.55;;;4.90;;
66179;SDS011;52986;44.028;20.466;2023-05-23T13:46:07;10.55;;;4.80;;
66179;SDS011;52986;44.028;20.466;2023-05-23T13:48:32;9.85;;;4.82;;
66179;SDS011;52986;44.028;20.466;2023-05-23T13:50:58;11.45;;;4.90;;
66179;SDS011;52986;44.028;20.466;2023-05-23T13:53:23;11.48;;;5.25;;
66179;SDS011;52986;44.028;20.466;2023-05-23T13:55:49;9.05;;;4.50;;
66179;SDS011;52986;44.028;20.466;2023-05-23T13:58:14;9.98;;;4.65;;
66179;SDS011;52986;44.028;20.466;2023-05-23T14:00:39;9.80;;;4.55;;
66179;SDS011;52986;44.028;20.466;2023-05-23T14:03:05;9.90;;;4.40;;
66179;SDS011;52986;44.028;20.466;2023-05-23T14:05:32;9.52;;;4.85;;
66179;SDS011;52986;44.028;20.466;2023-05-23T14:07:57;9.57;;;4.40;;
66179;SDS011;52986;44.028;20.466;2023-05-23T14:10:23;9.77;;;4.45;;
66179;SDS011;52986;44.028;20.466;2023-05-23T14:12:48;11.40;;;4.90;;
66179;SDS011;52986;44.028;20.466;2023-05-23T14:15:14;9.70;;;4.43;;
66179;SDS011;52986;44.028;20.466;2023-05-23T14:17:40;11.23;;;4.18;;
66179;SDS011;52986;44.028;20.466;2023-05-23T14:20:06;11.18;;;4.90;;
66179;SDS011;52986;44.028;20.466;2023-05-23T14:22:32;9.15;;;4.55;;
66179;SDS011;52986;44.028;20.466;2023-05-23T14:24:57;8.77;;;4.57;;
66179;SDS011;52986;44.028;20.466;2023-05-23T14:27:23;11.30;;;4.47;;
66179;SDS011;52986;44.028;20.466;2023-05-23T14:29:48;9.02;;;4.38;;
66179;SDS011;52986;44.028;20.466;2023-05-23T14:32:14;10.75;;;4.65;;
66179;SDS011;52986;44.028;20.466;2023-05-23T14:34:39;9.98;;;4.40;;
66179;SDS011;52986;44.028;20.466;2023-05-23T14:37:05;10.98;;;4.60;;
66179;SDS011;52986;44.028;20.466;2023-05-23T14:39:30;11.63;;;4.80;;
66179;SDS011;52986;44.028;20.466;2023-05-23T14:41:56;13.30;;;5.45;;
66179;SDS011;52986;44.028;20.466;2023-05-23T14:44:22;10.60;;;4.82;;
66179;SDS011;52986;44.028;20.466;2023-05-23T14:46:47;8.95;;;4.60;;
66179;SDS011;52986;44.028;20.466;2023-05-23T14:49:14;10.98;;;4.72;;
66179;SDS011;52986;44.028;20.466;2023-05-23T14:51:41;10.95;;;4.43;;
66179;SDS011;52986;44.028;20.466;2023-05-23T14:54:06;11.98;;;4.50;;
66179;SDS011;52986;44.028;20.466;2023-05-23T14:56:33;11.68;;;4.60;;
66179;SDS011;52986;44.028;20.466;2023-05-23T14:58:58;10.50;;;4.40;;